sensor_id;sensor_type;location;lat;lon;timestamp;P1;durP1;ratioP1;P2;durP2;ratioP2
8480;SDS011;4277;51.354;6.740;2023-11-18T00:01:35;48.53;;;24.40;;
8480;SDS011;4277;51.354;6.740;2023-11-18T00:04:01;49.60;;;24.43;;
8480;SDS011;4277;51.354;6.740;2023-11-18T00:06:27;55.33;;;23.83;;
8480;SDS011;4277;51.354;6.740;2023-11-18T00:08:53;53.33;;;24.63;;
8480;SDS011;4277;51.354;6.740;2023-11-18T00:11:20;47.50;;;23.73;;
8480;SDS011;4277;51.354;6.740;2023-11-18T00:13:46;54.93;;;24.73;;
8480;SDS011;4277;51.354;6.740;2023-11-18T00:16:12;57.20;;;24.90;;
8480;SDS011;4277;51.354;6.740;2023-11-18T00:18:38;49.67;;;23.37;;
8480;SDS011;4277;51.354;6.740;2023-11-18T00:21:05;53.70;;;23.53;;
8480;SDS011;4277;51.354;6.740;2023-11-18T00:23:31;52.30;;;23.30;;
8480;SDS011;4277;51.354;6.740;2023-11-18T00:25:57;57.07;;;23.90;;
8480;SDS011;4277;51.354;6.740;2023-11-18T00:28:23;60.33;;;23.77;;
8480;SDS011;4277;51.354;6.740;2023-11-18T00:30:49;61.47;;;24.80;;
8480;SDS011;4277;51.354;6.740;2023-11-18T00:33:15;59.43;;;24.50;;
8480;SDS011;4277;51.354;6.740;2023-11-18T00:35:41;55.90;;;22.03;;
8480;SDS011;4277;51.354;6.740;2023-11-18T00:38:07;66.37;;;24.43;;
8480;SDS011;4277;51.354;6.740;2023-11-18T00:40:35;67.07;;;25.13;;
8480;SDS011;4277;51.354;6.740;2023-11-18T00:43:01;67.10;;;25.27;;
8480;SDS011;4277;51.354;6.740;2023-11-18T00:45:27;70.17;;;25.17;;
8480;SDS011;4277;51.354;6.740;2023-11-18T00:47:53;68.73;;;25.70;;
8480;SDS011;4277;51.354;6.740;2023-11-18T00:50:20;65.10;;;25.43;;
8480;SDS011;4277;51.354;6.740;2023-11-18T00:52:46;77.97;;;26.93;;
8480;SDS011;4277;51.354;6.740;2023-11-18T00:55:14;66.87;;;25.10;;
8480;SDS011;4277;51.354;6.740;2023-11-18T00:57:43;73.80;;;25.20;;
8480;SDS011;4277;51.354;6.740;2023-11-18T01:00:11;76.70;;;25.97;;
8480;SDS011;4277;51.354;6.740;2023-11-18T01:02:39;71.83;;;25.90;;
8480;SDS011;4277;51.354;6.740;2023-11-18T01:05:05;69.70;;;24.30;;
8480;SDS011;4277;51.354;6.740;2023-11-18T01:07:34;69.63;;;24.20;;
8480;SDS011;4277;51.354;6.740;2023-11-18T01:10:01;61.43;;;23.60;;
8480;SDS011;4277;51.354;6.740;2023-11-18T01:12:27;59.63;;;22.83;;
8480;SDS011;4277;51.354;6.740;2023-11-18T01:14:53;60.90;;;22.70;;
8480;SDS011;4277;51.354;6.740;2023-11-18T01:17:19;68.17;;;25.03;;
8480;SDS011;4277;51.354;6.740;2023-11-18T01:19:47;63.93;;;22.73;;
8480;SDS011;4277;51.354;6.740;2023-11-18T01:22:13;62.57;;;23.50;;
8480;SDS011;4277;51.354;6.740;2023-11-18T01:24:39;53.73;;;21.53;;
8480;SDS011;4277;51.354;6.740;2023-11-18T01:27:05;57.77;;;23.50;;
8480;SDS011;4277;51.354;6.740;2023-11-18T01:29:34;63.67;;;23.87;;
8480;SDS011;4277;51.354;6.740;2023-11-18T01:32:01;61.97;;;24.33;;
8480;SDS011;4277;51.354;6.740;2023-11-18T01:34:33;57.57;;;24.10;;
8480;SDS011;4277;51.354;6.740;2023-11-18T01:36:59;61.60;;;24.23;;
8480;SDS011;4277;51.354;6.740;2023-11-18T01:39:25;52.80;;;22.90;;
8480;SDS011;4277;51.354;6.740;2023-11-18T01:41:52;54.70;;;23.23;;
8480;SDS011;4277;51.354;6.740;2023-11-18T01:44:18;52.93;;;23.67;;
8480;SDS011;4277;51.354;6.740;2023-11-18T01:46:44;56.70;;;24.70;;
8480;SDS011;4277;51.354;6.740;2023-11-18T01:49:13;53.00;;;23.63;;
8480;SDS011;4277;51.354;6.740;2023-11-18T01:51:41;55.17;;;23.97;;
8480;SDS011;4277;51.354;6.740;2023-11-18T01:54:07;49.87;;;23.70;;
8480;SDS011;4277;51.354;6.740;2023-11-18T01:56:33;53.43;;;23.47;;
8480;SDS011;4277;51.354;6.740;2023-11-18T01:58:59;50.43;;;24.07;;
8480;SDS011;4277;51.354;6.740;2023-11-18T02:01:29;48.07;;;22.20;;
8480;SDS011;4277;51.354;6.740;2023-11-18T02:03:55;48.13;;;22.67;;
8480;SDS011;4277;51.354;6.740;2023-11-18T02:06:21;51.93;;;24.17;;
8480;SDS011;4277;51.354;6.740;2023-11-18T02:08:47;53.83;;;23.53;;
8480;SDS011;4277;51.354;6.740;2023-11-18T02:11:16;50.70;;;22.70;;
8480;SDS011;4277;51.354;6.740;2023-11-18T02:13:44;51.50;;;24.07;;
8480;SDS011;4277;51.354;6.740;2023-11-18T02:16:12;52.77;;;23.17;;
8480;SDS011;4277;51.354;6.740;2023-11-18T02:18:38;52.77;;;24.00;;
8480;SDS011;4277;51.354;6.740;2023-11-18T02:21:08;51.43;;;23.60;;
8480;SDS011;4277;51.354;6.740;2023-11-18T02:23:36;51.43;;;23.83;;
8480;SDS011;4277;51.354;6.740;2023-11-18T02:26:02;49.07;;;22.20;;
8480;SDS011;4277;51.354;6.740;2023-11-18T02:28:28;50.23;;;22.97;;
8480;SDS011;4277;51.354;6.740;2023-11-18T02:31:01;54.17;;;23.37;;
8480;SDS011;4277;51.354;6.740;2023-11-18T02:33:36;57.87;;;24.23;;
8480;SDS011;4277;51.354;6.740;2023-11-18T02:36:09;50.70;;;22.23;;
8480;SDS011;4277;51.354;6.740;2023-11-18T02:38:38;49.23;;;22.67;;
8480;SDS011;4277;51.354;6.740;2023-11-18T02:41:06;48.00;;;23.23;;
8480;SDS011;4277;51.354;6.740;2023-11-18T02:43:35;53.60;;;23.73;;
8480;SDS011;4277;51.354;6.740;2023-11-18T02:46:02;51.73;;;22.67;;
8480;SDS011;4277;51.354;6.740;2023-11-18T02:48:29;46.60;;;21.83;;
8480;SDS011;4277;51.354;6.740;2023-11-18T02:50:56;54.37;;;23.70;;
8480;SDS011;4277;51.354;6.740;2023-11-18T02:53:22;54.63;;;23.23;;
8480;SDS011;4277;51.354;6.740;2023-11-18T02:55:49;49.30;;;22.73;;
8480;SDS011;4277;51.354;6.740;2023-11-18T02:58:17;55.63;;;23.33;;
8480;SDS011;4277;51.354;6.740;2023-11-18T03:00:43;53.00;;;23.27;;
8480;SDS011;4277;51.354;6.740;2023-11-18T03:03:09;54.33;;;22.73;;
8480;SDS011;4277;51.354;6.740;2023-11-18T03:05:36;50.03;;;23.73;;
8480;SDS011;4277;51.354;6.740;2023-11-18T03:08:02;50.43;;;22.20;;
8480;SDS011;4277;51.354;6.740;2023-11-18T03:10:31;45.83;;;22.40;;
8480;SDS011;4277;51.354;6.740;2023-11-18T03:12:59;53.77;;;22.77;;
8480;SDS011;4277;51.354;6.740;2023-11-18T03:15:25;57.27;;;24.50;;
8480;SDS011;4277;51.354;6.740;2023-11-18T03:17:52;52.47;;;23.23;;
8480;SDS011;4277;51.354;6.740;2023-11-18T03:20:18;47.90;;;22.03;;
8480;SDS011;4277;51.354;6.740;2023-11-18T03:22:45;49.67;;;22.90;;
8480;SDS011;4277;51.354;6.740;2023-11-18T03:25:11;49.43;;;21.90;;
8480;SDS011;4277;51.354;6.740;2023-11-18T03:27:38;50.60;;;23.37;;
8480;SDS011;4277;51.354;6.740;2023-11-18T03:30:04;46.17;;;22.30;;
8480;SDS011;4277;51.354;6.740;2023-11-18T03:32:31;43.57;;;21.73;;
8480;SDS011;4277;51.354;6.740;2023-11-18T03:34:57;43.77;;;21.87;;
8480;SDS011;4277;51.354;6.740;2023-11-18T03:37:26;44.50;;;21.50;;
8480;SDS011;4277;51.354;6.740;2023-11-18T03:39:52;42.63;;;21.27;;
8480;SDS011;4277;51.354;6.740;2023-11-18T03:42:18;41.87;;;20.00;;
8480;SDS011;4277;51.354;6.740;2023-11-18T03:44:44;43.40;;;20.87;;
8480;SDS011;4277;51.354;6.740;2023-11-18T03:47:14;41.40;;;20.83;;
8480;SDS011;4277;51.354;6.740;2023-11-18T03:49:43;38.60;;;20.00;;
8480;SDS011;4277;51.354;6.740;2023-11-18T03:52:09;40.23;;;19.43;;
8480;SDS011;4277;51.354;6.740;2023-11-18T03:54:35;40.17;;;20.50;;
8480;SDS011;4277;51.354;6.740;2023-11-18T03:57:01;39.37;;;20.40;;
8480;SDS011;4277;51.354;6.740;2023-11-18T03:59:27;39.60;;;20.60;;
8480;SDS011;4277;51.354;6.740;2023-11-18T04:01:53;40.07;;;20.27;;
8480;SDS011;4277;51.354;6.740;2023-11-18T04:04:19;42.33;;;22.17;;
8480;SDS011;4277;51.354;6.740;2023-11-18T04:06:44;37.23;;;20.30;;
8480;SDS011;4277;51.354;6.740;2023-11-18T04:09:11;39.97;;;20.87;;
8480;SDS011;4277;51.354;6.740;2023-11-18T04:11:38;39.17;;;19.60;;
8480;SDS011;4277;51.354;6.740;2023-11-18T04:14:04;39.90;;;20.20;;
8480;SDS011;4277;51.354;6.740;2023-11-18T04:16:30;41.30;;;20.60;;
8480;SDS011;4277;51.354;6.740;2023-11-18T04:18:56;40.30;;;20.73;;
8480;SDS011;4277;51.354;6.740;2023-11-18T04:21:22;37.47;;;19.37;;
8480;SDS011;4277;51.354;6.740;2023-11-18T04:23:48;37.27;;;19.60;;
8480;SDS011;4277;51.354;6.740;2023-11-18T04:26:14;39.67;;;19.40;;
8480;SDS011;4277;51.354;6.740;2023-11-18T04:28:40;34.17;;;19.03;;
8480;SDS011;4277;51.354;6.740;2023-11-18T04:31:06;35.27;;;19.93;;
8480;SDS011;4277;51.354;6.740;2023-11-18T04:33:32;38.33;;;19.03;;
8480;SDS011;4277;51.354;6.740;2023-11-18T04:35:58;36.27;;;19.23;;
8480;SDS011;4277;51.354;6.740;2023-11-18T04:38:25;33.77;;;18.10;;
8480;SDS011;4277;51.354;6.740;2023-11-18T04:40:54;36.47;;;19.20;;
8480;SDS011;4277;51.354;6.740;2023-11-18T04:43:21;38.10;;;18.73;;
8480;SDS011;4277;51.354;6.740;2023-11-18T04:45:50;36.63;;;18.67;;
8480;SDS011;4277;51.354;6.740;2023-11-18T04:48:16;34.33;;;17.97;;
8480;SDS011;4277;51.354;6.740;2023-11-18T04:50:42;36.60;;;19.27;;
8480;SDS011;4277;51.354;6.740;2023-11-18T04:53:08;34.23;;;17.70;;
8480;SDS011;4277;51.354;6.740;2023-11-18T04:55:36;38.00;;;18.63;;
8480;SDS011;4277;51.354;6.740;2023-11-18T04:58:02;34.77;;;17.53;;
8480;SDS011;4277;51.354;6.740;2023-11-18T05:00:29;33.57;;;17.17;;
8480;SDS011;4277;51.354;6.740;2023-11-18T05:02:55;32.73;;;17.27;;
8480;SDS011;4277;51.354;6.740;2023-11-18T05:05:21;33.13;;;17.57;;
8480;SDS011;4277;51.354;6.740;2023-11-18T05:07:47;32.93;;;17.33;;
8480;SDS011;4277;51.354;6.740;2023-11-18T05:10:13;34.27;;;17.67;;
8480;SDS011;4277;51.354;6.740;2023-11-18T05:12:39;37.43;;;18.33;;
8480;SDS011;4277;51.354;6.740;2023-11-18T05:15:05;35.97;;;18.47;;
8480;SDS011;4277;51.354;6.740;2023-11-18T05:17:36;34.13;;;17.23;;
8480;SDS011;4277;51.354;6.740;2023-11-18T05:20:05;32.10;;;16.70;;
8480;SDS011;4277;51.354;6.740;2023-11-18T05:22:36;31.97;;;17.10;;
8480;SDS011;4277;51.354;6.740;2023-11-18T05:25:02;37.63;;;18.83;;
8480;SDS011;4277;51.354;6.740;2023-11-18T05:27:29;32.23;;;17.77;;
8480;SDS011;4277;51.354;6.740;2023-11-18T05:29:56;30.60;;;17.33;;
8480;SDS011;4277;51.354;6.740;2023-11-18T05:32:26;32.67;;;18.07;;
8480;SDS011;4277;51.354;6.740;2023-11-18T05:34:52;30.23;;;16.60;;
8480;SDS011;4277;51.354;6.740;2023-11-18T05:37:19;29.97;;;17.40;;
8480;SDS011;4277;51.354;6.740;2023-11-18T05:39:45;32.67;;;17.77;;
8480;SDS011;4277;51.354;6.740;2023-11-18T05:42:11;35.73;;;19.33;;
8480;SDS011;4277;51.354;6.740;2023-11-18T05:44:37;33.40;;;19.13;;
8480;SDS011;4277;51.354;6.740;2023-11-18T05:47:07;36.40;;;19.30;;
8480;SDS011;4277;51.354;6.740;2023-11-18T05:49:33;32.07;;;17.60;;
8480;SDS011;4277;51.354;6.740;2023-11-18T05:51:59;31.40;;;17.77;;
8480;SDS011;4277;51.354;6.740;2023-11-18T05:54:25;29.83;;;17.43;;
8480;SDS011;4277;51.354;6.740;2023-11-18T05:56:52;32.13;;;17.83;;
8480;SDS011;4277;51.354;6.740;2023-11-18T05:59:18;29.63;;;17.83;;
8480;SDS011;4277;51.354;6.740;2023-11-18T06:01:44;30.27;;;17.67;;
8480;SDS011;4277;51.354;6.740;2023-11-18T06:04:12;28.70;;;17.03;;
8480;SDS011;4277;51.354;6.740;2023-11-18T06:06:38;30.30;;;16.93;;
8480;SDS011;4277;51.354;6.740;2023-11-18T06:09:04;30.10;;;17.47;;
8480;SDS011;4277;51.354;6.740;2023-11-18T06:11:34;28.60;;;16.93;;
8480;SDS011;4277;51.354;6.740;2023-11-18T06:14:00;32.40;;;18.07;;
8480;SDS011;4277;51.354;6.740;2023-11-18T06:16:26;29.33;;;17.20;;
8480;SDS011;4277;51.354;6.740;2023-11-18T06:18:53;29.90;;;16.63;;
8480;SDS011;4277;51.354;6.740;2023-11-18T06:21:20;33.40;;;18.17;;
8480;SDS011;4277;51.354;6.740;2023-11-18T06:23:49;33.43;;;18.47;;
8480;SDS011;4277;51.354;6.740;2023-11-18T06:26:16;32.20;;;18.10;;
8480;SDS011;4277;51.354;6.740;2023-11-18T06:28:45;30.50;;;17.90;;
8480;SDS011;4277;51.354;6.740;2023-11-18T06:31:12;31.80;;;17.87;;
8480;SDS011;4277;51.354;6.740;2023-11-18T06:33:39;31.60;;;18.60;;
8480;SDS011;4277;51.354;6.740;2023-11-18T06:36:08;36.23;;;19.63;;
8480;SDS011;4277;51.354;6.740;2023-11-18T06:38:34;32.63;;;17.70;;
8480;SDS011;4277;51.354;6.740;2023-11-18T06:41:00;32.73;;;17.20;;
8480;SDS011;4277;51.354;6.740;2023-11-18T06:43:28;31.20;;;18.13;;
8480;SDS011;4277;51.354;6.740;2023-11-18T06:46:01;32.87;;;18.43;;
8480;SDS011;4277;51.354;6.740;2023-11-18T06:48:27;32.67;;;18.53;;
8480;SDS011;4277;51.354;6.740;2023-11-18T06:50:53;30.83;;;17.60;;
8480;SDS011;4277;51.354;6.740;2023-11-18T06:53:19;35.70;;;18.10;;
8480;SDS011;4277;51.354;6.740;2023-11-18T06:55:45;32.60;;;18.07;;
8480;SDS011;4277;51.354;6.740;2023-11-18T06:58:11;29.57;;;17.20;;
8480;SDS011;4277;51.354;6.740;2023-11-18T07:00:38;38.33;;;18.03;;
8480;SDS011;4277;51.354;6.740;2023-11-18T07:03:04;32.70;;;18.60;;
8480;SDS011;4277;51.354;6.740;2023-11-18T07:05:30;29.27;;;17.87;;
8480;SDS011;4277;51.354;6.740;2023-11-18T07:07:56;36.27;;;18.63;;
8480;SDS011;4277;51.354;6.740;2023-11-18T07:10:22;37.10;;;18.70;;
8480;SDS011;4277;51.354;6.740;2023-11-18T07:12:48;34.37;;;18.57;;
8480;SDS011;4277;51.354;6.740;2023-11-18T07:15:14;32.37;;;18.63;;
8480;SDS011;4277;51.354;6.740;2023-11-18T07:17:40;31.27;;;17.67;;
8480;SDS011;4277;51.354;6.740;2023-11-18T07:20:06;34.93;;;18.97;;
8480;SDS011;4277;51.354;6.740;2023-11-18T07:22:36;31.23;;;18.43;;
8480;SDS011;4277;51.354;6.740;2023-11-18T07:25:02;34.50;;;18.57;;
8480;SDS011;4277;51.354;6.740;2023-11-18T07:27:28;31.83;;;17.50;;
8480;SDS011;4277;51.354;6.740;2023-11-18T07:29:54;32.13;;;18.17;;
8480;SDS011;4277;51.354;6.740;2023-11-18T07:32:23;31.47;;;17.97;;
8480;SDS011;4277;51.354;6.740;2023-11-18T07:34:49;32.00;;;17.73;;
8480;SDS011;4277;51.354;6.740;2023-11-18T07:37:15;29.57;;;17.63;;
8480;SDS011;4277;51.354;6.740;2023-11-18T07:39:41;29.47;;;17.43;;
8480;SDS011;4277;51.354;6.740;2023-11-18T07:42:13;29.80;;;17.50;;
8480;SDS011;4277;51.354;6.740;2023-11-18T07:44:40;29.03;;;17.53;;
8480;SDS011;4277;51.354;6.740;2023-11-18T07:47:06;27.10;;;17.03;;
8480;SDS011;4277;51.354;6.740;2023-11-18T07:49:33;31.70;;;17.80;;
8480;SDS011;4277;51.354;6.740;2023-11-18T07:52:00;27.87;;;17.10;;
8480;SDS011;4277;51.354;6.740;2023-11-18T07:54:26;29.67;;;17.03;;
8480;SDS011;4277;51.354;6.740;2023-11-18T07:56:52;29.60;;;16.73;;
8480;SDS011;4277;51.354;6.740;2023-11-18T07:59:19;28.53;;;16.43;;
8480;SDS011;4277;51.354;6.740;2023-11-18T08:01:45;31.40;;;17.47;;
8480;SDS011;4277;51.354;6.740;2023-11-18T08:04:12;30.73;;;17.07;;
8480;SDS011;4277;51.354;6.740;2023-11-18T08:06:41;30.50;;;16.57;;
8480;SDS011;4277;51.354;6.740;2023-11-18T08:09:11;28.77;;;17.37;;
8480;SDS011;4277;51.354;6.740;2023-11-18T08:11:39;26.67;;;16.27;;
8480;SDS011;4277;51.354;6.740;2023-11-18T08:14:09;24.93;;;16.20;;
8480;SDS011;4277;51.354;6.740;2023-11-18T08:16:35;29.43;;;15.53;;
8480;SDS011;4277;51.354;6.740;2023-11-18T08:19:01;25.87;;;16.03;;
8480;SDS011;4277;51.354;6.740;2023-11-18T08:21:27;26.93;;;15.67;;
8480;SDS011;4277;51.354;6.740;2023-11-18T08:23:53;24.73;;;15.63;;
8480;SDS011;4277;51.354;6.740;2023-11-18T08:26:20;26.23;;;14.97;;
8480;SDS011;4277;51.354;6.740;2023-11-18T08:28:46;24.57;;;15.40;;
8480;SDS011;4277;51.354;6.740;2023-11-18T08:31:13;25.50;;;15.87;;
8480;SDS011;4277;51.354;6.740;2023-11-18T08:33:42;24.00;;;15.33;;
8480;SDS011;4277;51.354;6.740;2023-11-18T08:36:10;25.97;;;16.00;;
8480;SDS011;4277;51.354;6.740;2023-11-18T08:38:37;24.20;;;15.83;;
8480;SDS011;4277;51.354;6.740;2023-11-18T08:41:03;25.07;;;15.47;;
8480;SDS011;4277;51.354;6.740;2023-11-18T08:43:33;23.40;;;14.87;;
8480;SDS011;4277;51.354;6.740;2023-11-18T08:46:00;24.97;;;15.50;;
8480;SDS011;4277;51.354;6.740;2023-11-18T08:48:26;24.07;;;15.63;;
8480;SDS011;4277;51.354;6.740;2023-11-18T08:50:53;24.77;;;15.67;;
8480;SDS011;4277;51.354;6.740;2023-11-18T08:53:19;24.37;;;14.87;;
8480;SDS011;4277;51.354;6.740;2023-11-18T08:55:51;23.63;;;14.97;;
8480;SDS011;4277;51.354;6.740;2023-11-18T08:58:19;23.17;;;14.97;;
8480;SDS011;4277;51.354;6.740;2023-11-18T09:00:53;22.50;;;15.30;;
8480;SDS011;4277;51.354;6.740;2023-11-18T09:03:23;22.93;;;14.27;;
8480;SDS011;4277;51.354;6.740;2023-11-18T09:06:03;23.15;;;16.88;;
8480;SDS011;4277;51.354;6.740;2023-11-18T09:08:42;23.73;;;14.43;;
8480;SDS011;4277;51.354;6.740;2023-11-18T09:11:09;19.23;;;13.23;;
8480;SDS011;4277;51.354;6.740;2023-11-18T09:13:46;19.20;;;13.70;;
8480;SDS011;4277;51.354;6.740;2023-11-18T09:16:18;21.30;;;13.07;;
8480;SDS011;4277;51.354;6.740;2023-11-18T09:18:47;16.17;;;11.90;;
8480;SDS011;4277;51.354;6.740;2023-11-18T09:21:13;18.07;;;13.20;;
8480;SDS011;4277;51.354;6.740;2023-11-18T09:23:40;16.87;;;12.10;;
8480;SDS011;4277;51.354;6.740;2023-11-18T09:26:07;17.10;;;12.00;;
8480;SDS011;4277;51.354;6.740;2023-11-18T09:28:33;15.47;;;11.57;;
8480;SDS011;4277;51.354;6.740;2023-11-18T09:31:00;14.67;;;11.30;;
8480;SDS011;4277;51.354;6.740;2023-11-18T09:33:28;18.43;;;11.80;;
8480;SDS011;4277;51.354;6.740;2023-11-18T09:36:01;17.93;;;11.07;;
8480;SDS011;4277;51.354;6.740;2023-11-18T09:38:31;18.80;;;10.90;;
8480;SDS011;4277;51.354;6.740;2023-11-18T09:40:58;15.43;;;10.57;;
8480;SDS011;4277;51.354;6.740;2023-11-18T09:43:28;15.00;;;10.10;;
8480;SDS011;4277;51.354;6.740;2023-11-18T09:45:57;16.10;;;10.57;;
8480;SDS011;4277;51.354;6.740;2023-11-18T09:48:27;15.80;;;10.17;;
8480;SDS011;4277;51.354;6.740;2023-11-18T09:50:53;15.30;;;10.30;;
8480;SDS011;4277;51.354;6.740;2023-11-18T09:53:19;14.73;;;10.40;;
8480;SDS011;4277;51.354;6.740;2023-11-18T09:55:49;16.17;;;10.30;;
8480;SDS011;4277;51.354;6.740;2023-11-18T09:58:20;16.90;;;10.30;;
8480;SDS011;4277;51.354;6.740;2023-11-18T10:00:49;15.20;;;9.87;;
8480;SDS011;4277;51.354;6.740;2023-11-18T10:03:16;14.50;;;10.07;;
8480;SDS011;4277;51.354;6.740;2023-11-18T10:05:42;15.43;;;9.50;;
8480;SDS011;4277;51.354;6.740;2023-11-18T10:08:09;13.77;;;9.90;;
8480;SDS011;4277;51.354;6.740;2023-11-18T10:10:35;13.90;;;9.63;;
8480;SDS011;4277;51.354;6.740;2023-11-18T10:13:01;11.80;;;9.00;;
8480;SDS011;4277;51.354;6.740;2023-11-18T10:15:30;12.23;;;8.90;;
8480;SDS011;4277;51.354;6.740;2023-11-18T10:17:56;12.03;;;9.10;;
8480;SDS011;4277;51.354;6.740;2023-11-18T10:20:44;11.03;;;8.73;;
8480;SDS011;4277;51.354;6.740;2023-11-18T10:23:12;10.97;;;8.70;;
8480;SDS011;4277;51.354;6.740;2023-11-18T10:25:46;14.57;;;9.07;;
8480;SDS011;4277;51.354;6.740;2023-11-18T10:28:29;14.40;;;9.37;;
8480;SDS011;4277;51.354;6.740;2023-11-18T10:31:01;11.03;;;8.10;;
8480;SDS011;4277;51.354;6.740;2023-11-18T10:35:57;12.17;;;8.83;;
8480;SDS011;4277;51.354;6.740;2023-11-18T10:38:23;10.77;;;8.67;;
8480;SDS011;4277;51.354;6.740;2023-11-18T10:40:52;10.53;;;8.30;;
8480;SDS011;4277;51.354;6.740;2023-11-18T10:43:20;11.83;;;8.60;;
8480;SDS011;4277;51.354;6.740;2023-11-18T10:45:49;10.77;;;8.40;;
8480;SDS011;4277;51.354;6.740;2023-11-18T10:48:15;15.17;;;8.37;;
8480;SDS011;4277;51.354;6.740;2023-11-18T10:50:45;10.40;;;7.60;;
8480;SDS011;4277;51.354;6.740;2023-11-18T10:53:11;12.77;;;7.83;;
8480;SDS011;4277;51.354;6.740;2023-11-18T10:55:38;10.57;;;7.90;;
8480;SDS011;4277;51.354;6.740;2023-11-18T10:58:05;8.93;;;7.50;;
8480;SDS011;4277;51.354;6.740;2023-11-18T11:00:48;9.67;;;7.70;;
8480;SDS011;4277;51.354;6.740;2023-11-18T11:03:15;9.43;;;7.80;;
8480;SDS011;4277;51.354;6.740;2023-11-18T11:05:43;12.83;;;8.33;;
8480;SDS011;4277;51.354;6.740;2023-11-18T11:08:11;12.40;;;7.77;;
8480;SDS011;4277;51.354;6.740;2023-11-18T11:10:45;10.63;;;8.27;;
8480;SDS011;4277;51.354;6.740;2023-11-18T11:13:13;12.17;;;8.50;;
8480;SDS011;4277;51.354;6.740;2023-11-18T11:15:41;12.80;;;8.00;;
8480;SDS011;4277;51.354;6.740;2023-11-18T11:18:14;14.67;;;8.63;;
8480;SDS011;4277;51.354;6.740;2023-11-18T11:20:52;12.23;;;7.93;;
8480;SDS011;4277;51.354;6.740;2023-11-18T11:23:21;11.60;;;9.33;;
8480;SDS011;4277;51.354;6.740;2023-11-18T11:28:57;13.67;;;8.80;;
8480;SDS011;4277;51.354;6.740;2023-11-18T11:31:26;14.30;;;8.93;;
8480;SDS011;4277;51.354;6.740;2023-11-18T11:36:25;11.70;;;9.43;;
8480;SDS011;4277;51.354;6.740;2023-11-18T11:38:54;11.23;;;8.70;;
8480;SDS011;4277;51.354;6.740;2023-11-18T11:41:21;12.93;;;9.07;;
8480;SDS011;4277;51.354;6.740;2023-11-18T11:43:51;11.03;;;8.70;;
8480;SDS011;4277;51.354;6.740;2023-11-18T11:46:24;13.20;;;9.17;;
8480;SDS011;4277;51.354;6.740;2023-11-18T11:48:52;14.57;;;9.73;;
8480;SDS011;4277;51.354;6.740;2023-11-18T11:51:25;21.23;;;12.90;;
8480;SDS011;4277;51.354;6.740;2023-11-18T11:53:55;14.87;;;10.57;;
8480;SDS011;4277;51.354;6.740;2023-11-18T11:56:39;13.43;;;9.13;;
8480;SDS011;4277;51.354;6.740;2023-11-18T11:59:05;14.23;;;9.53;;
8480;SDS011;4277;51.354;6.740;2023-11-18T12:01:36;12.60;;;9.53;;
8480;SDS011;4277;51.354;6.740;2023-11-18T12:04:11;15.27;;;9.70;;
8480;SDS011;4277;51.354;6.740;2023-11-18T12:06:46;12.40;;;9.23;;
8480;SDS011;4277;51.354;6.740;2023-11-18T12:09:18;11.10;;;9.13;;
8480;SDS011;4277;51.354;6.740;2023-11-18T12:11:48;13.90;;;9.20;;
8480;SDS011;4277;51.354;6.740;2023-11-18T12:14:14;14.37;;;9.77;;
8480;SDS011;4277;51.354;6.740;2023-11-18T12:19:34;12.77;;;9.90;;
8480;SDS011;4277;51.354;6.740;2023-11-18T12:22:12;13.63;;;9.47;;
8480;SDS011;4277;51.354;6.740;2023-11-18T12:24:43;16.43;;;10.03;;
8480;SDS011;4277;51.354;6.740;2023-11-18T12:27:09;14.87;;;9.50;;
8480;SDS011;4277;51.354;6.740;2023-11-18T12:29:41;15.87;;;10.00;;
8480;SDS011;4277;51.354;6.740;2023-11-18T12:32:11;12.37;;;9.30;;
8480;SDS011;4277;51.354;6.740;2023-11-18T12:34:51;12.10;;;9.20;;
8480;SDS011;4277;51.354;6.740;2023-11-18T12:37:25;11.93;;;8.63;;
8480;SDS011;4277;51.354;6.740;2023-11-18T12:47:42;12.87;;;8.23;;
8480;SDS011;4277;51.354;6.740;2023-11-18T12:50:13;10.63;;;8.23;;
8480;SDS011;4277;51.354;6.740;2023-11-18T12:52:51;11.17;;;7.67;;
8480;SDS011;4277;51.354;6.740;2023-11-18T12:55:17;15.23;;;8.20;;
8480;SDS011;4277;51.354;6.740;2023-11-18T12:57:46;10.23;;;7.77;;
8480;SDS011;4277;51.354;6.740;2023-11-18T13:00:13;12.03;;;8.03;;
8480;SDS011;4277;51.354;6.740;2023-11-18T13:02:42;11.33;;;8.03;;
8480;SDS011;4277;51.354;6.740;2023-11-18T13:05:08;11.60;;;7.87;;
8480;SDS011;4277;51.354;6.740;2023-11-18T13:07:34;11.10;;;7.17;;
8480;SDS011;4277;51.354;6.740;2023-11-18T13:10:01;10.10;;;7.40;;
8480;SDS011;4277;51.354;6.740;2023-11-18T13:12:29;11.10;;;7.70;;
8480;SDS011;4277;51.354;6.740;2023-11-18T13:14:55;12.23;;;7.90;;
8480;SDS011;4277;51.354;6.740;2023-11-18T13:17:22;9.87;;;7.47;;
8480;SDS011;4277;51.354;6.740;2023-11-18T13:19:48;11.37;;;7.70;;
8480;SDS011;4277;51.354;6.740;2023-11-18T13:22:19;11.43;;;6.93;;
8480;SDS011;4277;51.354;6.740;2023-11-18T13:24:45;9.63;;;7.10;;
8480;SDS011;4277;51.354;6.740;2023-11-18T13:27:15;10.40;;;6.80;;
8480;SDS011;4277;51.354;6.740;2023-11-18T13:29:45;12.80;;;7.00;;
8480;SDS011;4277;51.354;6.740;2023-11-18T13:32:14;9.10;;;6.57;;
8480;SDS011;4277;51.354;6.740;2023-11-18T13:34:40;11.17;;;6.70;;
8480;SDS011;4277;51.354;6.740;2023-11-18T13:37:07;10.97;;;6.67;;
8480;SDS011;4277;51.354;6.740;2023-11-18T13:39:33;6.60;;;5.87;;
8480;SDS011;4277;51.354;6.740;2023-11-18T13:42:24;10.77;;;6.13;;
8480;SDS011;4277;51.354;6.740;2023-11-18T13:44:53;13.60;;;6.60;;
8480;SDS011;4277;51.354;6.740;2023-11-18T13:47:19;9.93;;;5.80;;
8480;SDS011;4277;51.354;6.740;2023-11-18T13:49:45;9.77;;;5.37;;
8480;SDS011;4277;51.354;6.740;2023-11-18T13:52:15;15.30;;;5.67;;
8480;SDS011;4277;51.354;6.740;2023-11-18T13:54:43;8.77;;;5.90;;
8480;SDS011;4277;51.354;6.740;2023-11-18T13:57:10;12.87;;;5.43;;
8480;SDS011;4277;51.354;6.740;2023-11-18T13:59:36;11.37;;;5.20;;
8480;SDS011;4277;51.354;6.740;2023-11-18T14:02:03;9.63;;;4.57;;
8480;SDS011;4277;51.354;6.740;2023-11-18T14:04:30;7.23;;;4.70;;
8480;SDS011;4277;51.354;6.740;2023-11-18T14:07:00;7.90;;;4.20;;
8480;SDS011;4277;51.354;6.740;2023-11-18T14:09:30;7.97;;;4.13;;
8480;SDS011;4277;51.354;6.740;2023-11-18T14:12:01;5.70;;;3.97;;
8480;SDS011;4277;51.354;6.740;2023-11-18T14:14:27;6.43;;;3.83;;
8480;SDS011;4277;51.354;6.740;2023-11-18T14:16:53;8.87;;;3.67;;
8480;SDS011;4277;51.354;6.740;2023-11-18T14:19:26;7.70;;;3.60;;
8480;SDS011;4277;51.354;6.740;2023-11-18T14:21:55;6.97;;;3.77;;
8480;SDS011;4277;51.354;6.740;2023-11-18T14:24:21;5.97;;;3.37;;
8480;SDS011;4277;51.354;6.740;2023-11-18T14:26:48;6.77;;;3.47;;
8480;SDS011;4277;51.354;6.740;2023-11-18T14:29:15;5.67;;;3.33;;
8480;SDS011;4277;51.354;6.740;2023-11-18T14:31:41;6.10;;;3.80;;
8480;SDS011;4277;51.354;6.740;2023-11-18T14:34:07;11.77;;;4.10;;
8480;SDS011;4277;51.354;6.740;2023-11-18T14:36:36;8.60;;;3.70;;
8480;SDS011;4277;51.354;6.740;2023-11-18T14:39:02;5.40;;;3.67;;
8480;SDS011;4277;51.354;6.740;2023-11-18T14:41:28;6.43;;;3.80;;
8480;SDS011;4277;51.354;6.740;2023-11-18T14:43:56;7.23;;;4.27;;
8480;SDS011;4277;51.354;6.740;2023-11-18T14:46:23;8.07;;;4.13;;
8480;SDS011;4277;51.354;6.740;2023-11-18T14:48:49;8.63;;;4.63;;
8480;SDS011;4277;51.354;6.740;2023-11-18T14:51:16;10.50;;;4.40;;
8480;SDS011;4277;51.354;6.740;2023-11-18T14:53:42;8.30;;;4.53;;
8480;SDS011;4277;51.354;6.740;2023-11-18T14:56:09;7.53;;;4.40;;
8480;SDS011;4277;51.354;6.740;2023-11-18T14:58:35;9.43;;;4.70;;
8480;SDS011;4277;51.354;6.740;2023-11-18T15:01:01;11.57;;;4.83;;
8480;SDS011;4277;51.354;6.740;2023-11-18T15:03:27;5.37;;;3.70;;
8480;SDS011;4277;51.354;6.740;2023-11-18T15:05:56;7.47;;;4.60;;
8480;SDS011;4277;51.354;6.740;2023-11-18T15:08:22;11.13;;;4.50;;
8480;SDS011;4277;51.354;6.740;2023-11-18T15:10:48;9.40;;;4.40;;
8480;SDS011;4277;51.354;6.740;2023-11-18T15:13:14;7.67;;;4.57;;
8480;SDS011;4277;51.354;6.740;2023-11-18T15:15:40;7.27;;;4.10;;